createdAt,value
2022-09-10T00:00:02.380Z,1.60
2022-09-10T00:01:02.323Z,1.70
2022-09-10T00:02:02.412Z,1.60
2022-09-10T00:03:02.337Z,1.70
2022-09-10T00:04:02.304Z,1.60
2022-09-10T00:05:02.374Z,1.80
2022-09-10T00:06:02.254Z,1.60
2022-09-10T00:07:02.246Z,1.90
2022-09-10T00:08:02.240Z,1.60
2022-09-10T00:09:02.215Z,1.90
2022-09-10T00:10:02.245Z,1.80
2022-09-10T00:11:02.192Z,1.80
2022-09-10T00:12:02.175Z,1.60
2022-09-10T00:13:02.191Z,1.80
2022-09-10T00:14:02.145Z,1.60
2022-09-10T00:15:02.182Z,1.80
2022-09-10T00:16:02.175Z,1.90
2022-09-10T00:17:02.138Z,1.70
2022-09-10T00:18:02.114Z,1.70
2022-09-10T00:19:02.087Z,1.90
2022-09-10T00:20:02.068Z,1.80
2022-09-10T00:21:02.059Z,1.90
2022-09-10T00:22:02.067Z,1.70
2022-09-10T00:23:02.035Z,2.00
2022-09-10T00:24:02.012Z,1.80
2022-09-10T00:25:06.261Z,1.90
2022-09-10T00:26:01.989Z,1.90
2022-09-10T00:27:02.005Z,1.90
2022-09-10T00:28:01.964Z,1.90
2022-09-10T00:29:01.984Z,2.20
2022-09-10T00:30:01.933Z,1.90
2022-09-10T00:31:01.940Z,2.10
2022-09-10T00:32:01.930Z,1.80
2022-09-10T00:33:01.922Z,1.80
2022-09-10T00:34:01.874Z,1.70
2022-09-10T00:35:01.872Z,1.80
2022-09-10T00:36:01.865Z,1.80
2022-09-10T00:37:01.856Z,1.80
2022-09-10T00:38:01.849Z,1.80
2022-09-10T00:39:01.848Z,2.10
2022-09-10T00:40:01.902Z,1.70
2022-09-10T00:41:01.789Z,1.70
2022-09-10T00:42:01.770Z,1.70
2022-09-10T00:43:01.770Z,1.80
2022-09-10T00:44:01.773Z,1.80
2022-09-10T00:45:01.736Z,1.90
2022-09-10T00:46:01.756Z,1.70
2022-09-10T00:47:01.701Z,1.90
2022-09-10T00:48:01.697Z,1.90
2022-09-10T00:49:01.704Z,2.00
2022-09-10T00:50:01.743Z,1.80
2022-09-10T00:51:01.654Z,1.80
2022-09-10T00:52:01.638Z,1.70
2022-09-10T00:53:01.627Z,2.10
2022-09-10T00:54:01.601Z,2.00
2022-09-10T00:55:01.623Z,2.10
2022-09-10T00:56:01.580Z,1.90
2022-09-10T00:57:01.593Z,1.90
2022-09-10T00:58:01.549Z,2.00
2022-09-10T00:59:01.545Z,1.70
2022-09-10T01:00:01.531Z,1.70
2022-09-10T01:01:01.705Z,1.70
2022-09-10T01:02:01.590Z,1.90
2022-09-10T01:03:01.491Z,1.80
2022-09-10T01:04:01.464Z,2.00
2022-09-10T01:05:01.488Z,1.70
2022-09-10T01:06:01.449Z,2.00
2022-09-10T01:07:01.443Z,1.70
2022-09-10T01:08:01.452Z,2.00
2022-09-10T01:09:01.435Z,2.10
2022-09-10T01:10:01.391Z,1.90
2022-09-10T01:11:01.388Z,1.80
2022-09-10T01:12:03.725Z,2.20
2022-09-10T01:13:01.351Z,2.10
2022-09-10T01:14:01.365Z,2.20
2022-09-10T01:15:01.370Z,2.20
2022-09-10T01:16:01.346Z,2.20
2022-09-10T01:17:01.323Z,2.10
2022-09-10T01:18:01.278Z,1.90
2022-09-10T01:19:01.273Z,2.20
2022-09-10T01:20:01.283Z,2.00
2022-09-10T01:21:01.251Z,2.30
2022-09-10T01:22:01.223Z,2.00
2022-09-10T01:23:01.224Z,2.10
2022-09-10T01:24:01.203Z,2.10
2022-09-10T01:25:01.208Z,2.10
2022-09-10T01:26:01.175Z,2.00
2022-09-10T01:27:01.158Z,2.30
2022-09-10T01:28:01.181Z,2.00
2022-09-10T01:29:01.136Z,2.20
2022-09-10T01:30:01.122Z,2.20
2022-09-10T01:31:01.138Z,1.90
2022-09-10T01:32:01.091Z,2.10
2022-09-10T01:33:01.092Z,2.00
2022-09-10T01:34:01.061Z,2.10
2022-09-10T01:35:01.068Z,2.10
2022-09-10T01:36:01.055Z,2.30
2022-09-10T01:37:01.045Z,2.20
2022-09-10T01:38:01.080Z,2.10
2022-09-10T01:39:01.012Z,2.10
2022-09-10T01:40:01.025Z,2.10
2022-09-10T01:41:00.976Z,2.00
2022-09-10T01:42:00.957Z,2.10
2022-09-10T01:43:00.971Z,2.00
2022-09-10T01:44:00.929Z,2.10
2022-09-10T01:45:00.923Z,1.90
2022-09-10T01:46:01.002Z,2.30
2022-09-10T01:47:00.923Z,1.90
2022-09-10T01:48:00.873Z,2.00
2022-09-10T01:49:00.894Z,2.00
2022-09-10T01:50:00.853Z,2.40
2022-09-10T01:51:00.856Z,2.20
2022-09-10T01:52:00.819Z,2.40
2022-09-10T01:53:00.843Z,2.10
2022-09-10T01:54:00.826Z,2.00
2022-09-10T01:55:00.793Z,2.10
2022-09-10T01:56:00.908Z,2.10
2022-09-10T01:57:00.762Z,2.50
2022-09-10T01:58:00.765Z,2.00
2022-09-10T01:59:00.729Z,2.40
2022-09-10T02:00:00.704Z,2.00
2022-09-10T02:01:00.775Z,2.30
2022-09-10T02:02:00.743Z,2.10
2022-09-10T02:03:00.698Z,2.10
2022-09-10T02:04:00.692Z,2.20
2022-09-10T02:05:00.648Z,2.30
2022-09-10T02:06:00.629Z,2.10
2022-09-10T02:07:00.680Z,2.40
2022-09-10T02:08:00.629Z,2.20
2022-09-10T02:09:00.617Z,2.10
2022-09-10T02:10:00.618Z,2.20
2022-09-10T02:11:00.606Z,2.10
2022-09-10T02:12:00.543Z,2.20
2022-09-10T02:13:00.542Z,2.10
2022-09-10T02:14:00.550Z,2.50
2022-09-10T02:15:00.508Z,2.30
2022-09-10T02:16:00.564Z,2.10
2022-09-10T02:17:00.489Z,2.10
2022-09-10T02:18:00.471Z,2.40
2022-09-10T02:19:00.490Z,2.20
2022-09-10T02:20:00.477Z,2.50
2022-09-10T02:21:00.455Z,2.50
2022-09-10T02:22:00.414Z,2.00
2022-09-10T02:23:00.408Z,2.30
2022-09-10T02:24:00.380Z,2.00
2022-09-10T02:25:00.407Z,2.20
2022-09-10T02:26:00.352Z,2.00
2022-09-10T02:27:00.346Z,2.20
2022-09-10T02:28:00.333Z,1.90
2022-09-10T02:29:00.318Z,2.40
2022-09-10T02:30:00.354Z,2.20
2022-09-10T02:31:00.319Z,2.20
2022-09-10T02:32:00.290Z,2.20
2022-09-10T02:33:00.268Z,2.10
2022-09-10T02:34:00.251Z,2.20
2022-09-10T02:35:00.241Z,2.10
2022-09-10T02:36:00.244Z,2.10
2022-09-10T02:37:00.214Z,1.90
2022-09-10T02:38:00.193Z,2.40
2022-09-10T02:39:00.197Z,2.10
2022-09-10T02:40:00.316Z,2.10
2022-09-10T02:41:00.186Z,2.10
2022-09-10T02:42:00.145Z,2.30
2022-09-10T02:43:00.132Z,2.20
2022-09-10T02:44:00.121Z,2.10
2022-09-10T02:45:00.134Z,2.00
2022-09-10T02:46:00.138Z,2.10
2022-09-10T02:47:00.081Z,2.30
2022-09-10T02:48:00.057Z,2.00
2022-09-10T02:49:00.049Z,2.20
2022-09-10T02:50:00.060Z,2.00
2022-09-10T02:51:00.041Z,2.40
2022-09-10T02:52:00.007Z,2.10
2022-09-10T02:53:00.034Z,2.40
2022-09-10T02:53:59.980Z,2.10
2022-09-10T02:54:59.971Z,2.30
2022-09-10T02:55:59.975Z,2.10
2022-09-10T02:56:59.935Z,2.10
2022-09-10T02:57:59.921Z,2.20
2022-09-10T02:58:59.914Z,2.20
2022-09-10T02:59:59.909Z,2.20
2022-09-10T03:00:59.935Z,1.90
2022-09-10T03:01:59.911Z,2.10
2022-09-10T03:03:03.103Z,1.80
2022-09-10T03:03:59.839Z,2.10
2022-09-10T03:04:59.833Z,2.00
2022-09-10T03:05:59.829Z,2.20
2022-09-10T03:06:59.823Z,2.20
2022-09-10T03:07:59.808Z,2.30
2022-09-10T03:08:59.775Z,2.00
2022-09-10T03:09:59.763Z,2.40
2022-09-10T03:10:59.764Z,2.20
2022-09-10T03:11:59.740Z,2.50
2022-09-10T03:12:59.723Z,2.10
2022-09-10T03:13:59.705Z,2.40
2022-09-10T03:14:59.703Z,2.20
2022-09-10T03:15:59.748Z,2.00
2022-09-10T03:16:59.687Z,2.20
2022-09-10T03:17:59.653Z,2.10
2022-09-10T03:18:59.690Z,2.20
2022-09-10T03:19:59.648Z,2.20
2022-09-10T03:20:59.679Z,2.30
2022-09-10T03:21:59.625Z,2.20
2022-09-10T03:22:59.579Z,2.40
2022-09-10T03:23:59.578Z,2.20
2022-09-10T03:24:59.562Z,2.50
2022-09-10T03:25:59.546Z,2.20
2022-09-10T03:26:59.556Z,2.40
2022-09-10T03:27:59.522Z,2.30
2022-09-10T03:28:59.502Z,2.30
2022-09-10T03:29:59.497Z,2.30
2022-09-10T03:30:59.477Z,2.20
2022-09-10T03:31:59.508Z,2.50
2022-09-10T03:32:59.452Z,2.10
2022-09-10T03:33:59.431Z,2.30
2022-09-10T03:34:59.445Z,2.20
2022-09-10T03:35:59.412Z,2.30
2022-09-10T03:36:59.404Z,2.20
2022-09-10T03:37:59.408Z,2.30
2022-09-10T03:38:59.382Z,2.20
2022-09-10T03:39:59.376Z,2.20
2022-09-10T03:40:59.336Z,2.00
2022-09-10T03:41:59.334Z,2.30
2022-09-10T03:42:59.315Z,2.30
2022-09-10T03:43:59.318Z,2.30
2022-09-10T03:44:59.287Z,2.10
2022-09-10T03:45:59.297Z,2.40
2022-09-10T03:46:59.263Z,2.40
2022-09-10T03:47:59.259Z,2.30
2022-09-10T03:48:59.253Z,2.40
2022-09-10T03:49:59.286Z,2.00
2022-09-10T03:50:59.209Z,2.10
2022-09-10T03:51:59.197Z,1.90
2022-09-10T03:52:59.171Z,2.10
2022-09-10T03:53:59.193Z,2.00
2022-09-10T03:54:59.176Z,2.30
2022-09-10T03:55:59.140Z,1.90
2022-09-10T03:56:59.131Z,2.30
2022-09-10T03:57:59.100Z,2.00
2022-09-10T03:58:59.099Z,2.20
2022-09-10T03:59:59.119Z,1.80
2022-09-10T04:00:59.108Z,2.10
2022-09-10T04:01:59.104Z,1.90
2022-09-10T04:02:59.071Z,2.20
2022-09-10T04:03:59.040Z,2.00
2022-09-10T04:04:59.023Z,1.90
2022-09-10T04:05:59.030Z,2.10
2022-09-10T04:06:58.996Z,2.00
2022-09-10T04:07:58.976Z,2.20
2022-09-10T04:08:58.997Z,2.00
2022-09-10T04:09:58.975Z,2.30
2022-09-10T04:10:58.942Z,1.90
2022-09-10T04:11:58.948Z,2.10
2022-09-10T04:12:58.904Z,2.20
2022-09-10T04:13:58.919Z,2.20
2022-09-10T04:14:58.886Z,2.30
2022-09-10T04:15:58.897Z,2.40
2022-09-10T04:16:58.863Z,2.30
2022-09-10T04:17:58.845Z,2.40
2022-09-10T04:18:58.833Z,2.30
2022-09-10T04:19:58.840Z,2.40
2022-09-10T04:20:58.802Z,2.30
2022-09-10T04:21:58.814Z,2.50
2022-09-10T04:22:58.791Z,2.40
2022-09-10T04:23:58.766Z,2.20
2022-09-10T04:24:58.733Z,2.40
2022-09-10T04:25:58.736Z,2.30
2022-09-10T04:26:58.742Z,2.50
2022-09-10T04:27:58.747Z,2.40
2022-09-10T04:28:58.685Z,2.60
2022-09-10T04:29:58.674Z,2.20
2022-09-10T04:30:58.688Z,2.40
2022-09-10T04:31:58.703Z,2.30
2022-09-10T04:32:58.632Z,2.50
2022-09-10T04:33:58.618Z,2.40
2022-09-10T04:34:58.621Z,2.60
2022-09-10T04:35:58.613Z,2.40
2022-09-10T04:36:58.598Z,2.70
2022-09-10T04:37:58.607Z,2.50
2022-09-10T04:38:58.556Z,2.40
2022-09-10T04:39:58.592Z,2.60
2022-09-10T04:40:58.524Z,2.30
2022-09-10T04:41:58.533Z,2.30
2022-09-10T04:42:58.495Z,2.20
2022-09-10T04:43:58.506Z,2.60
2022-09-10T04:44:58.468Z,2.30
2022-09-10T04:45:58.531Z,2.50
2022-09-10T04:46:58.443Z,2.50
2022-09-10T04:47:58.464Z,2.50
2022-09-10T04:48:58.412Z,2.20
2022-09-10T04:49:58.416Z,2.50
2022-09-10T04:51:58.393Z,2.60
2022-09-10T04:52:58.385Z,2.60
2022-09-10T04:53:58.360Z,2.50
2022-09-10T04:54:58.325Z,2.40
2022-09-10T04:55:58.326Z,2.50
2022-09-10T04:56:58.331Z,2.60
2022-09-10T04:57:58.297Z,2.50
2022-09-10T04:58:58.283Z,2.60
2022-09-10T04:59:58.297Z,2.30
2022-09-10T05:00:58.297Z,2.50
2022-09-10T05:01:58.290Z,2.30
2022-09-10T05:02:58.226Z,2.40
2022-09-10T05:03:58.219Z,2.40
2022-09-10T05:04:58.228Z,2.60
2022-09-10T05:05:58.182Z,2.10
2022-09-10T05:06:58.173Z,2.40
2022-09-10T05:07:58.157Z,2.40
2022-09-10T05:08:58.140Z,2.30
2022-09-10T05:09:58.155Z,2.40
2022-09-10T05:10:58.115Z,2.50
2022-09-10T05:11:58.123Z,2.50
2022-09-10T05:12:58.089Z,2.50
2022-09-10T05:13:58.093Z,2.70
2022-09-10T05:14:58.074Z,2.60
2022-09-10T05:15:58.071Z,2.40
2022-09-10T05:16:58.025Z,2.40
2022-09-10T05:17:58.022Z,2.70
2022-09-10T05:18:58.011Z,2.50
2022-09-10T05:19:58.001Z,2.40
2022-09-10T05:20:58.013Z,2.20
2022-09-10T05:21:57.972Z,2.40
2022-09-10T05:22:57.952Z,2.60
2022-09-10T05:23:57.952Z,2.30
2022-09-10T05:24:57.921Z,2.60
2022-09-10T05:25:57.958Z,2.30
2022-09-10T05:26:57.905Z,2.50
2022-09-10T05:27:57.890Z,2.30
2022-09-10T05:28:57.869Z,2.50
2022-09-10T05:29:57.884Z,3.00
2022-09-10T05:30:57.870Z,5.00
2022-09-10T05:31:57.906Z,4.10
2022-09-10T05:32:57.823Z,3.50
2022-09-10T05:33:57.807Z,3.10
2022-09-10T05:34:57.828Z,3.00
2022-09-10T05:35:57.806Z,2.80
2022-09-10T05:36:57.761Z,2.80
2022-09-10T05:37:57.748Z,3.40
2022-09-10T05:38:57.736Z,3.90
2022-09-10T05:39:57.814Z,4.40
2022-09-10T05:40:57.708Z,7.30
2022-09-10T05:41:57.720Z,6.00
2022-09-10T05:42:57.687Z,5.10
2022-09-10T05:43:57.671Z,6.40
2022-09-10T05:44:57.655Z,6.60
2022-09-10T05:45:57.700Z,6.10
2022-09-10T05:46:57.652Z,5.80
2022-09-10T05:47:57.621Z,3.40
2022-09-10T05:48:57.601Z,2.50
2022-09-10T05:49:57.583Z,2.80
2022-09-10T05:50:57.577Z,2.30
2022-09-10T05:51:57.586Z,2.40
2022-09-10T05:52:57.545Z,2.50
2022-09-10T05:53:57.542Z,2.50
2022-09-10T05:54:57.540Z,2.50
2022-09-10T05:55:57.544Z,2.70
2022-09-10T05:56:57.535Z,2.70
2022-09-10T05:57:57.481Z,2.80
2022-09-10T05:58:57.464Z,2.40
2022-09-10T05:59:57.460Z,2.60
2022-09-10T06:00:57.443Z,2.30
2022-09-10T06:01:57.531Z,2.30
2022-09-10T06:02:57.580Z,2.10
2022-09-10T06:03:57.396Z,2.00
2022-09-10T06:04:57.380Z,2.40
2022-09-10T06:05:57.380Z,2.00
2022-09-10T06:06:57.350Z,2.00
2022-09-10T06:07:57.365Z,1.80
2022-09-10T06:08:57.336Z,2.10
2022-09-10T06:09:57.319Z,2.00
2022-09-10T06:10:57.292Z,2.00
2022-09-10T06:11:57.285Z,2.10
2022-09-10T06:12:57.294Z,2.10
2022-09-10T06:13:57.262Z,2.30
2022-09-10T06:14:57.248Z,2.00
2022-09-10T06:15:57.231Z,2.30
2022-09-10T06:16:57.208Z,2.20
2022-09-10T06:17:57.224Z,2.20
2022-09-10T06:18:57.185Z,2.00
2022-09-10T06:19:57.183Z,2.10
2022-09-10T06:20:57.160Z,1.90
2022-09-10T06:21:57.153Z,2.00
2022-09-10T06:22:57.189Z,2.10
2022-09-10T06:23:57.148Z,2.70
2022-09-10T06:24:57.108Z,2.50
2022-09-10T06:25:57.095Z,2.50
2022-09-10T06:26:57.079Z,1.90
2022-09-10T06:27:57.177Z,2.20
2022-09-10T06:28:57.142Z,2.10
2022-09-10T06:29:57.053Z,2.10
2022-09-10T06:30:57.061Z,2.00
2022-09-10T06:31:57.014Z,2.30
2022-09-10T06:32:57.040Z,2.30
2022-09-10T06:33:57.006Z,2.30
2022-09-10T06:34:56.970Z,1.90
2022-09-10T06:35:56.960Z,2.30
2022-09-10T06:36:56.938Z,2.10
2022-09-10T06:37:56.943Z,2.10
2022-09-10T06:38:56.979Z,2.40
2022-09-10T06:39:56.975Z,2.30
2022-09-10T06:40:56.929Z,2.10
2022-09-10T06:41:56.880Z,2.20
2022-09-10T06:42:56.857Z,2.60
2022-09-10T06:43:56.864Z,2.90
2022-09-10T06:44:56.867Z,3.00
2022-09-10T06:45:56.855Z,3.10
2022-09-10T06:47:35.899Z,4.10
2022-09-10T06:48:57.056Z,14.40
2022-09-10T06:49:56.772Z,18.90
2022-09-10T06:50:56.748Z,7.20
2022-09-10T06:51:56.779Z,3.60
2022-09-10T06:52:56.724Z,3.80
2022-09-10T06:53:56.709Z,2.10
2022-09-10T06:54:56.698Z,2.00
2022-09-10T06:55:56.682Z,2.00
2022-09-10T06:56:56.684Z,2.00
2022-09-10T06:57:56.678Z,2.20
2022-09-10T06:59:00.298Z,1.90
2022-09-10T06:59:56.625Z,2.10
2022-09-10T07:00:56.737Z,2.20
2022-09-10T07:01:56.660Z,2.20
2022-09-10T07:02:56.594Z,2.00
2022-09-10T07:03:56.584Z,2.20
2022-09-10T07:04:56.563Z,2.10
2022-09-10T07:05:56.574Z,2.10
2022-09-10T07:06:56.578Z,1.90
2022-09-10T07:07:56.533Z,2.00
2022-09-10T07:08:56.502Z,2.00
2022-09-10T07:09:56.494Z,1.90
2022-09-10T07:10:56.548Z,1.70
2022-09-10T07:11:56.553Z,1.90
2022-09-10T07:12:56.456Z,1.70
2022-09-10T07:13:56.460Z,2.10
2022-09-10T07:14:56.453Z,1.90
2022-09-10T07:15:56.452Z,1.90
2022-09-10T07:16:56.442Z,2.20
2022-09-10T07:17:56.385Z,1.90
2022-09-10T07:18:56.376Z,2.10
2022-09-10T07:19:56.389Z,2.10
2022-09-10T07:20:56.350Z,2.30
2022-09-10T07:21:56.357Z,1.90
2022-09-10T07:22:56.331Z,2.40
2022-09-10T07:23:56.304Z,2.00
2022-09-10T07:24:56.292Z,2.30
2022-09-10T07:25:56.283Z,1.80
2022-09-10T07:26:56.306Z,2.00
2022-09-10T07:27:56.248Z,2.00
2022-09-10T07:28:56.233Z,1.90
2022-09-10T07:29:56.225Z,2.10
2022-09-10T07:30:56.232Z,2.00
2022-09-10T07:31:56.219Z,2.00
2022-09-10T07:32:56.194Z,2.90
2022-09-10T07:33:56.169Z,2.70
2022-09-10T07:34:56.159Z,3.10
2022-09-10T07:35:56.140Z,2.10
2022-09-10T07:36:56.173Z,2.10
2022-09-10T07:37:56.116Z,2.00
2022-09-10T07:38:56.100Z,2.20
2022-09-10T07:39:56.135Z,1.90
2022-09-10T07:40:56.077Z,2.70
2022-09-10T07:41:56.083Z,2.40
2022-09-10T07:42:56.051Z,3.80
2022-09-10T07:43:56.030Z,2.90
2022-09-10T07:44:56.066Z,3.70
2022-09-10T07:45:56.081Z,2.80
2022-09-10T07:46:55.991Z,2.50
2022-09-10T07:47:55.985Z,2.90
2022-09-10T07:48:56.022Z,2.50
2022-09-10T07:49:55.948Z,2.50
2022-09-10T07:50:55.957Z,2.50
2022-09-10T07:51:59.856Z,2.20
2022-09-10T07:52:55.921Z,2.20
2022-09-10T07:53:55.951Z,2.50
2022-09-10T07:54:55.883Z,2.30
2022-09-10T07:55:55.873Z,2.10
2022-09-10T07:56:55.856Z,2.20
2022-09-10T07:57:59.557Z,2.20
2022-09-10T07:58:55.855Z,2.70
2022-09-10T07:59:55.847Z,2.20
2022-09-10T08:00:55.801Z,2.00
2022-09-10T08:01:55.838Z,2.20
2022-09-10T08:02:55.783Z,2.50
2022-09-10T08:03:55.788Z,2.70
2022-09-10T08:04:55.755Z,2.60
2022-09-10T08:05:55.763Z,2.50
2022-09-10T08:06:55.724Z,2.40
2022-09-10T08:07:55.768Z,2.50
2022-09-10T08:08:55.728Z,2.30
2022-09-10T08:09:55.691Z,1.80
2022-09-10T08:10:55.706Z,2.20
2022-09-10T08:11:55.669Z,1.90
2022-09-10T08:12:55.710Z,1.80
2022-09-10T08:13:55.635Z,1.70
2022-09-10T08:14:55.622Z,1.70
2022-09-10T08:15:55.612Z,1.70
2022-09-10T08:16:55.633Z,1.70
2022-09-10T08:17:55.574Z,1.90
2022-09-10T08:18:55.589Z,1.70
2022-09-10T08:19:55.545Z,1.70
2022-09-10T08:20:55.545Z,1.70
2022-09-10T08:21:55.531Z,1.70
2022-09-10T08:22:55.510Z,1.70
2022-09-10T08:23:55.484Z,1.80
2022-09-10T08:24:55.476Z,1.90
2022-09-10T08:25:55.507Z,1.60
2022-09-10T08:26:55.453Z,1.70
2022-09-10T08:27:55.442Z,1.90
2022-09-10T08:28:55.426Z,1.90
2022-09-10T08:29:55.433Z,2.20
2022-09-10T08:30:55.473Z,2.00
2022-09-10T08:31:55.389Z,1.90
2022-09-10T08:32:55.374Z,1.80
2022-09-10T08:33:55.358Z,1.90
2022-09-10T08:34:55.351Z,1.80
2022-09-10T08:35:55.321Z,1.70
2022-09-10T08:36:55.348Z,1.90
2022-09-10T08:37:55.344Z,1.60
2022-09-10T08:39:00.776Z,1.90
2022-09-10T08:39:55.351Z,2.00
2022-09-10T08:40:55.266Z,2.10
2022-09-10T08:41:55.256Z,2.60
2022-09-10T08:42:55.242Z,2.40
2022-09-10T08:43:55.232Z,2.50
2022-09-10T08:44:55.211Z,2.20
2022-09-10T08:45:55.261Z,2.00
2022-09-10T08:46:55.199Z,1.90
2022-09-10T08:47:55.175Z,2.30
2022-09-10T08:48:55.158Z,2.30
2022-09-10T08:49:55.136Z,2.20
2022-09-10T08:50:55.136Z,8.00
2022-09-10T08:51:55.144Z,5.20
2022-09-10T08:52:55.118Z,6.40
2022-09-10T08:53:55.080Z,12.10
2022-09-10T08:54:55.084Z,4.70
2022-09-10T08:55:55.054Z,2.20
2022-09-10T08:56:55.073Z,2.20
2022-09-10T08:57:55.057Z,2.00
2022-09-10T08:58:55.020Z,2.00
2022-09-10T08:59:55.000Z,1.60
2022-09-10T09:00:55.026Z,1.90
2022-09-10T09:01:55.079Z,1.90
2022-09-10T09:02:55.020Z,2.00
2022-09-10T09:03:54.986Z,2.00
2022-09-10T09:04:54.944Z,1.60
2022-09-10T09:05:54.923Z,2.10
2022-09-10T09:06:54.930Z,1.80
2022-09-10T09:07:54.905Z,2.00
2022-09-10T09:08:54.908Z,1.80
2022-09-10T09:09:54.906Z,2.00
2022-09-10T09:10:54.856Z,2.00
2022-09-10T09:11:54.870Z,1.90
2022-09-10T09:12:54.870Z,2.00
2022-09-10T09:13:54.809Z,1.80
2022-09-10T09:14:54.819Z,1.90
2022-09-10T09:15:55.042Z,2.00
2022-09-10T09:16:54.796Z,1.90
2022-09-10T09:17:54.805Z,1.90
2022-09-10T09:18:54.746Z,2.00
2022-09-10T09:19:54.747Z,2.80
2022-09-10T09:20:54.721Z,2.50
2022-09-10T09:21:54.725Z,2.80
2022-09-10T09:22:54.701Z,5.10
2022-09-10T09:24:12.275Z,4.00
2022-09-10T09:24:54.671Z,3.50
2022-09-10T09:25:54.652Z,2.00
2022-09-10T09:26:54.659Z,2.00
2022-09-10T09:27:54.637Z,2.30
2022-09-10T09:28:54.647Z,2.80
2022-09-10T09:29:54.639Z,2.50
2022-09-10T09:30:54.662Z,1.90
2022-09-10T09:31:54.559Z,1.70
2022-09-10T09:32:54.593Z,1.60
2022-09-10T09:33:54.538Z,1.80
2022-09-10T09:34:54.536Z,1.70
2022-09-10T09:35:54.512Z,1.70
2022-09-10T09:36:54.504Z,1.90
2022-09-10T09:37:54.524Z,1.80
2022-09-10T09:38:54.482Z,1.70
2022-09-10T09:39:54.505Z,1.80
2022-09-10T09:40:54.449Z,1.70
2022-09-10T09:41:54.427Z,2.00
2022-09-10T09:42:54.449Z,1.70
2022-09-10T09:43:54.412Z,1.70
2022-09-10T09:44:57.201Z,1.60
2022-09-10T09:45:54.500Z,1.80
2022-09-10T09:46:54.366Z,1.60
2022-09-10T09:47:54.385Z,1.70
2022-09-10T09:48:54.369Z,1.60
2022-09-10T09:49:54.324Z,1.60
2022-09-10T09:50:54.317Z,1.60
2022-09-10T09:51:54.303Z,1.70
2022-09-10T09:52:54.285Z,1.70
2022-09-10T09:54:18.559Z,1.70
2022-09-10T09:55:13.832Z,1.70
2022-09-10T09:55:54.286Z,1.70
2022-09-10T09:56:54.225Z,1.50
2022-09-10T09:57:54.208Z,1.80
2022-09-10T09:58:54.230Z,1.50
2022-09-10T09:59:54.182Z,1.50
2022-09-10T10:00:54.174Z,1.50
2022-09-10T10:01:54.293Z,1.50
2022-09-10T10:02:54.171Z,1.60
2022-09-10T10:03:54.160Z,1.70
2022-09-10T10:04:54.129Z,1.80
2022-09-10T10:05:54.112Z,1.60
2022-09-10T10:06:54.093Z,1.70
2022-09-10T10:07:54.100Z,1.60
2022-09-10T10:08:54.070Z,1.70
2022-09-10T10:09:54.077Z,1.70
2022-09-10T10:10:54.067Z,1.40
2022-09-10T10:11:54.027Z,1.50
2022-09-10T10:12:54.009Z,1.70
2022-09-10T10:13:53.989Z,1.90
2022-09-10T10:14:53.984Z,1.80
2022-09-10T10:15:54.032Z,1.90
2022-09-10T10:16:57.416Z,1.40
2022-09-10T10:17:53.949Z,1.50
2022-09-10T10:18:53.928Z,1.50
2022-09-10T10:19:53.912Z,1.50
2022-09-10T10:20:53.933Z,1.50
2022-09-10T10:21:53.913Z,1.50
2022-09-10T10:22:53.883Z,1.80
2022-09-10T10:23:53.855Z,1.60
2022-09-10T10:24:53.853Z,1.50
2022-09-10T10:25:53.849Z,1.60
2022-09-10T10:26:53.848Z,1.60
2022-09-10T10:27:53.822Z,1.60
2022-09-10T10:28:53.783Z,2.60
2022-09-10T10:29:53.771Z,1.80
2022-09-10T10:30:53.844Z,2.70
2022-09-10T10:31:53.750Z,8.90
2022-09-10T10:32:53.744Z,4.50
2022-09-10T10:33:53.743Z,6.50
2022-09-10T10:34:53.707Z,4.40
2022-09-10T10:35:53.689Z,3.20
2022-09-10T10:36:53.679Z,2.60
2022-09-10T10:37:53.682Z,2.60
2022-09-10T10:38:53.693Z,2.00
2022-09-10T10:39:53.676Z,1.90
2022-09-10T10:40:53.646Z,1.60
2022-09-10T10:41:53.617Z,1.80
2022-09-10T10:42:53.628Z,2.70
2022-09-10T10:43:53.581Z,2.60
2022-09-10T10:44:53.565Z,2.20
2022-09-10T10:45:53.594Z,2.00
2022-09-10T10:46:53.572Z,1.40
2022-09-10T10:47:53.529Z,5.80
2022-09-10T10:48:57.854Z,11.50
2022-09-10T10:49:53.515Z,13.10
2022-09-10T10:50:53.496Z,6.10
2022-09-10T10:51:53.512Z,8.80
2022-09-10T10:52:53.486Z,6.20
2022-09-10T10:53:53.448Z,4.80
2022-09-10T10:54:53.453Z,2.60
2022-09-10T10:55:53.464Z,1.70
2022-09-10T10:56:53.412Z,1.50
2022-09-10T10:57:53.398Z,1.50
2022-09-10T10:58:54.522Z,1.50
2022-09-10T10:59:53.383Z,2.00
2022-09-10T11:00:53.391Z,1.60
2022-09-10T11:01:53.507Z,1.60
2022-09-10T11:02:53.336Z,1.30
2022-09-10T11:03:53.312Z,1.30
2022-09-10T11:04:53.330Z,1.80
2022-09-10T11:05:53.328Z,1.60
2022-09-10T11:06:53.279Z,1.40
2022-09-10T11:07:53.295Z,1.30
2022-09-10T11:08:53.245Z,1.20
2022-09-10T11:09:53.261Z,1.10
2022-09-10T11:10:53.244Z,1.30
2022-09-10T11:11:53.213Z,1.30
2022-09-10T11:12:53.198Z,2.10
2022-09-10T11:13:53.181Z,1.70
2022-09-10T11:14:53.188Z,1.70
2022-09-10T11:15:53.227Z,1.90
2022-09-10T11:16:56.612Z,1.70
2022-09-10T11:17:53.131Z,1.60
2022-09-10T11:18:53.122Z,1.40
2022-09-10T11:20:10.828Z,1.40
2022-09-10T11:20:53.120Z,1.30
2022-09-10T11:21:53.102Z,1.40
2022-09-10T11:22:53.064Z,1.50
2022-09-10T11:23:53.037Z,1.60
2022-09-10T11:24:53.020Z,1.50
2022-09-10T11:25:53.046Z,1.40
2022-09-10T11:26:53.027Z,1.30
2022-09-10T11:27:52.991Z,1.30
2022-09-10T11:28:52.974Z,1.60
2022-09-10T11:29:52.961Z,1.40
2022-09-10T11:30:52.971Z,1.70
2022-09-10T11:31:52.930Z,2.00
2022-09-10T11:32:52.935Z,1.90
2022-09-10T11:33:52.908Z,1.30
2022-09-10T11:34:52.889Z,1.30
2022-09-10T11:35:52.884Z,1.30
2022-09-10T11:36:52.869Z,1.80
2022-09-10T11:37:52.977Z,4.90
2022-09-10T11:38:52.862Z,4.70
2022-09-10T11:39:52.854Z,3.90
2022-09-10T11:40:52.912Z,1.70
2022-09-10T11:41:52.804Z,1.70
2022-09-10T11:42:52.788Z,1.80
2022-09-10T11:43:52.770Z,1.60
2022-09-10T11:44:52.755Z,1.90
2022-09-10T11:45:52.954Z,2.20
2022-09-10T11:46:52.727Z,1.90
2022-09-10T11:47:52.719Z,1.70
2022-09-10T11:48:52.723Z,1.60
2022-09-10T11:49:52.693Z,4.20
2022-09-10T11:50:52.674Z,4.50
2022-09-10T11:51:52.681Z,7.00
2022-09-10T11:52:52.645Z,4.20
2022-09-10T11:53:52.637Z,6.60
2022-09-10T11:54:52.635Z,3.90
2022-09-10T11:55:52.606Z,1.70
2022-09-10T11:56:52.610Z,3.70
2022-09-10T11:57:52.585Z,5.30
2022-09-10T11:58:52.588Z,2.30
2022-09-10T11:59:52.553Z,2.20
2022-09-10T12:00:52.539Z,5.60
2022-09-10T12:01:52.608Z,2.60
2022-09-10T12:02:52.494Z,2.80
2022-09-10T12:03:52.573Z,1.90
2022-09-10T12:04:52.486Z,3.00
2022-09-10T12:05:52.468Z,2.10
2022-09-10T12:06:53.038Z,5.40
2022-09-10T12:07:52.489Z,1.50
2022-09-10T12:08:52.416Z,2.20
2022-09-10T12:09:52.420Z,4.70
2022-09-10T12:10:52.407Z,2.00
2022-09-10T12:11:52.384Z,2.80
2022-09-10T12:12:52.398Z,2.40
2022-09-10T12:13:52.398Z,3.20
2022-09-10T12:14:52.342Z,3.40
2022-09-10T12:15:52.409Z,3.40
2022-09-10T12:16:52.310Z,3.90
2022-09-10T12:17:52.308Z,6.70
2022-09-10T12:18:52.324Z,4.80
2022-09-10T12:19:52.281Z,3.20
2022-09-10T12:20:52.261Z,3.60
2022-09-10T12:21:52.250Z,2.90
2022-09-10T12:22:52.258Z,3.40
2022-09-10T12:23:52.217Z,3.60
2022-09-10T12:24:52.235Z,2.60
2022-09-10T12:25:52.266Z,2.50
2022-09-10T12:26:52.184Z,2.10
2022-09-10T12:27:52.173Z,2.50
2022-09-10T12:28:52.151Z,2.50
2022-09-10T12:29:52.170Z,3.10
2022-09-10T12:30:52.182Z,2.90
2022-09-10T12:31:52.144Z,1.60
2022-09-10T12:32:52.125Z,1.80
2022-09-10T12:33:52.088Z,2.30
2022-09-10T12:34:52.063Z,2.50
2022-09-10T12:35:52.076Z,2.20
2022-09-10T12:36:52.040Z,2.80
2022-09-10T12:37:52.056Z,2.00
2022-09-10T12:38:52.004Z,2.10
2022-09-10T12:39:52.059Z,2.30
2022-09-10T12:40:52.035Z,1.40
2022-09-10T12:41:51.975Z,1.70
2022-09-10T12:42:51.983Z,1.90
2022-09-10T12:43:51.936Z,1.60
2022-09-10T12:44:51.931Z,1.70
2022-09-10T12:45:51.931Z,2.40
2022-09-10T12:46:51.900Z,2.30
2022-09-10T12:47:51.920Z,2.30
2022-09-10T12:48:51.881Z,2.40
2022-09-10T12:49:51.866Z,1.70
2022-09-10T12:50:51.874Z,2.20
2022-09-10T12:51:51.835Z,2.10
2022-09-10T12:52:51.848Z,1.60
2022-09-10T12:53:51.808Z,1.80
2022-09-10T12:54:51.798Z,1.40
2022-09-10T12:55:51.806Z,1.80
2022-09-10T12:56:51.792Z,1.90
2022-09-10T12:57:51.759Z,1.50
2022-09-10T12:58:51.733Z,1.40
2022-09-10T12:59:51.725Z,1.80
2022-09-10T13:00:51.712Z,1.60
2022-09-10T13:01:51.795Z,1.90
2022-09-10T13:02:51.707Z,1.30
2022-09-10T13:03:53.968Z,1.10
2022-09-10T13:04:51.659Z,1.20
2022-09-10T13:05:51.649Z,1.40
2022-09-10T13:06:51.633Z,1.10
2022-09-10T13:07:51.644Z,1.30
2022-09-10T13:08:51.625Z,1.50
2022-09-10T13:09:51.606Z,1.50
2022-09-10T13:10:51.579Z,1.70
2022-09-10T13:11:51.564Z,1.70
2022-09-10T13:12:51.574Z,1.50
2022-09-10T13:13:51.539Z,1.50
2022-09-10T13:14:51.518Z,1.40
2022-09-10T13:15:51.626Z,1.40
2022-09-10T13:16:51.493Z,1.50
2022-09-10T13:17:51.488Z,1.60
2022-09-10T13:18:55.119Z,1.50
2022-09-10T13:19:51.466Z,1.40